Airfield :
LOGIN :

Register | Disclaimer

   EN    FR    IT 

 










Legend :    VFR   Marginal VFR   IFR   Intensive IFR   Very Intensive IFR
Visi :
Ceiling :
>= 8 km
>= 3000ft
5 to 8 km
1000 to 3000 ft
1500m to 5 km
500 to 1000 ft
800 to 1500m
200 to 500 ft
< 800m
< 200 ft
Symbols :   Thunderstorms  Fog  Heavy snow  Heavy precipitations  Wind > 20 kt
SIGMETs :     Misc.  Thunderstorms  Icing  Turbulence  Mountain Waves  Volcanic Ashes







- Airport Elevation : 461 ft
- IATA code : WIE


ETOU - Wiesbaden Army

CURRENT METAR :
  • 242056Z AUTO 29004KT 9999 CLR 06/00 A3023 RMK AO2 SLP242 T00621005 50001 $

EXPIRED METARs :
  • 241956Z AUTO 00000KT 9999 CLR 08/02 A3023 RMK AO2 SLP242 T00760017 $
  • 241756Z AUTO 26004KT 9999 FEW037 10/03 A3023 RMK AO2 SLP242 T00990034 10142 20099 50001 $

TAF TAF ETOU
Valid from the 24 at 12:00 until the 25 at 18:00 UTC


241209Z 2412/2518 35009KT 9999 SCT030 QNH3022INS
BECMG 2418/2419 VRB06KT 9999 SCT030 QNH3019INS
BECMG 2505/2506 30009KT 9999 SCT040 QNH3017INS
BECMG 2511/2512 31015G25KT 9999 BKN030 QNH3014INS TX18/2415Z TN01/2504Z LAST NO AMDS AFT 2412 NEXT 2504
No reported NOTAMs for that airfield.



MET'MAP, your aeronautical weather chart ! - Copyright ORBIFLY December 2007 - Disclaimer

ORBIFLY MET'MAP TEAM :

Programming & Development : Alexandra Zaïnal
Concept & Development : Baudouin d'Aumeries
Co-Development & Prog : Marc-Olivier Méhu
Technical & hardware support : Manuel Goepfert

Contact : metmap@orbifly.com




SOURCES & CREDITS :

   NOAA